sensor_id;sensor_type;location;lat;lon;timestamp;temperature;humidity
7028;DHT22;3555;53.248;10.336;2023-10-31T00:00:43;11.50;99.90
7028;DHT22;3555;53.248;10.336;2023-10-31T00:03:11;11.40;99.90
7028;DHT22;3555;53.248;10.336;2023-10-31T00:05:38;11.40;99.90
7028;DHT22;3555;53.248;10.336;2023-10-31T00:08:05;11.40;99.90
7028;DHT22;3555;53.248;10.336;2023-10-31T00:10:32;11.40;99.90
7028;DHT22;3555;53.248;10.336;2023-10-31T00:12:59;11.40;99.90
7028;DHT22;3555;53.248;10.336;2023-10-31T00:15:26;11.30;99.90
7028;DHT22;3555;53.248;10.336;2023-10-31T00:17:54;11.40;99.90
7028;DHT22;3555;53.248;10.336;2023-10-31T00:20:22;11.40;99.90
7028;DHT22;3555;53.248;10.336;2023-10-31T00:22:49;11.40;99.90
7028;DHT22;3555;53.248;10.336;2023-10-31T00:25:16;11.40;99.90
7028;DHT22;3555;53.248;10.336;2023-10-31T00:27:43;11.50;99.90
7028;DHT22;3555;53.248;10.336;2023-10-31T00:30:10;11.50;99.90
7028;DHT22;3555;53.248;10.336;2023-10-31T00:32:37;11.50;99.90
7028;DHT22;3555;53.248;10.336;2023-10-31T00:35:05;11.50;99.90
7028;DHT22;3555;53.248;10.336;2023-10-31T00:37:33;11.60;99.90
7028;DHT22;3555;53.248;10.336;2023-10-31T00:40:00;11.60;99.90
7028;DHT22;3555;53.248;10.336;2023-10-31T00:42:27;11.50;99.90
7028;DHT22;3555;53.248;10.336;2023-10-31T00:44:54;11.40;99.90
7028;DHT22;3555;53.248;10.336;2023-10-31T00:47:20;11.50;99.90
7028;DHT22;3555;53.248;10.336;2023-10-31T00:49:47;11.50;99.90
7028;DHT22;3555;53.248;10.336;2023-10-31T00:52:14;11.50;99.90
7028;DHT22;3555;53.248;10.336;2023-10-31T00:54:42;11.60;99.90
7028;DHT22;3555;53.248;10.336;2023-10-31T00:57:09;11.70;99.90
7028;DHT22;3555;53.248;10.336;2023-10-31T00:59:36;11.70;99.90
7028;DHT22;3555;53.248;10.336;2023-10-31T01:02:04;11.70;99.90
7028;DHT22;3555;53.248;10.336;2023-10-31T01:04:31;11.80;99.90
7028;DHT22;3555;53.248;10.336;2023-10-31T01:06:58;11.70;99.90
7028;DHT22;3555;53.248;10.336;2023-10-31T01:09:25;11.80;99.90
7028;DHT22;3555;53.248;10.336;2023-10-31T01:11:53;11.70;99.90
7028;DHT22;3555;53.248;10.336;2023-10-31T01:14:20;11.70;99.90
7028;DHT22;3555;53.248;10.336;2023-10-31T01:16:47;11.70;99.90
7028;DHT22;3555;53.248;10.336;2023-10-31T01:19:14;11.70;99.90
7028;DHT22;3555;53.248;10.336;2023-10-31T01:21:41;11.70;99.90
7028;DHT22;3555;53.248;10.336;2023-10-31T01:24:08;11.60;99.90
7028;DHT22;3555;53.248;10.336;2023-10-31T01:26:35;11.60;99.90
7028;DHT22;3555;53.248;10.336;2023-10-31T01:29:04;11.50;99.90
7028;DHT22;3555;53.248;10.336;2023-10-31T01:31:30;11.60;99.90
7028;DHT22;3555;53.248;10.336;2023-10-31T01:33:58;11.50;99.90
7028;DHT22;3555;53.248;10.336;2023-10-31T01:36:25;11.60;99.90
7028;DHT22;3555;53.248;10.336;2023-10-31T01:38:52;11.50;99.90
7028;DHT22;3555;53.248;10.336;2023-10-31T01:41:19;11.50;99.90
7028;DHT22;3555;53.248;10.336;2023-10-31T01:43:46;11.50;99.90
7028;DHT22;3555;53.248;10.336;2023-10-31T01:46:15;11.60;99.90
7028;DHT22;3555;53.248;10.336;2023-10-31T01:48:42;11.60;99.90
7028;DHT22;3555;53.248;10.336;2023-10-31T01:51:10;11.60;99.90
7028;DHT22;3555;53.248;10.336;2023-10-31T01:53:37;11.60;99.90
7028;DHT22;3555;53.248;10.336;2023-10-31T01:56:05;11.60;99.90
7028;DHT22;3555;53.248;10.336;2023-10-31T01:58:35;11.70;99.90
7028;DHT22;3555;53.248;10.336;2023-10-31T02:01:03;11.60;99.90
7028;DHT22;3555;53.248;10.336;2023-10-31T02:03:32;11.60;99.90
7028;DHT22;3555;53.248;10.336;2023-10-31T02:05:59;11.60;99.90
7028;DHT22;3555;53.248;10.336;2023-10-31T02:08:26;11.50;99.90
7028;DHT22;3555;53.248;10.336;2023-10-31T02:10:53;11.70;99.90
7028;DHT22;3555;53.248;10.336;2023-10-31T02:13:20;11.90;99.90
7028;DHT22;3555;53.248;10.336;2023-10-31T02:15:46;11.80;99.90
7028;DHT22;3555;53.248;10.336;2023-10-31T02:18:14;11.90;99.90
7028;DHT22;3555;53.248;10.336;2023-10-31T02:20:42;11.80;99.90
7028;DHT22;3555;53.248;10.336;2023-10-31T02:23:10;11.80;99.90
7028;DHT22;3555;53.248;10.336;2023-10-31T02:25:37;11.80;99.90
7028;DHT22;3555;53.248;10.336;2023-10-31T02:28:04;11.70;99.90
7028;DHT22;3555;53.248;10.336;2023-10-31T02:30:31;11.80;99.90
7028;DHT22;3555;53.248;10.336;2023-10-31T02:32:58;11.80;99.90
7028;DHT22;3555;53.248;10.336;2023-10-31T02:35:27;11.80;99.90
7028;DHT22;3555;53.248;10.336;2023-10-31T02:37:53;11.80;99.90
7028;DHT22;3555;53.248;10.336;2023-10-31T02:40:22;11.80;99.90
7028;DHT22;3555;53.248;10.336;2023-10-31T02:42:49;11.80;99.90
7028;DHT22;3555;53.248;10.336;2023-10-31T02:45:16;11.80;99.90
7028;DHT22;3555;53.248;10.336;2023-10-31T02:47:43;11.90;99.90
7028;DHT22;3555;53.248;10.336;2023-10-31T02:50:09;11.80;99.90
7028;DHT22;3555;53.248;10.336;2023-10-31T02:52:36;11.80;99.90
7028;DHT22;3555;53.248;10.336;2023-10-31T02:55:04;11.80;99.90
7028;DHT22;3555;53.248;10.336;2023-10-31T02:57:32;11.80;99.90
7028;DHT22;3555;53.248;10.336;2023-10-31T02:59:59;11.90;99.90
7028;DHT22;3555;53.248;10.336;2023-10-31T03:02:27;11.90;99.90
7028;DHT22;3555;53.248;10.336;2023-10-31T03:04:55;11.90;99.90
7028;DHT22;3555;53.248;10.336;2023-10-31T03:07:22;11.90;99.90
7028;DHT22;3555;53.248;10.336;2023-10-31T03:09:49;11.90;99.90
7028;DHT22;3555;53.248;10.336;2023-10-31T03:12:15;11.90;99.90
7028;DHT22;3555;53.248;10.336;2023-10-31T03:14:44;11.90;99.90
7028;DHT22;3555;53.248;10.336;2023-10-31T03:17:10;12.00;99.90
7028;DHT22;3555;53.248;10.336;2023-10-31T03:19:37;11.90;99.90
7028;DHT22;3555;53.248;10.336;2023-10-31T03:22:04;11.90;99.90
7028;DHT22;3555;53.248;10.336;2023-10-31T03:24:32;12.00;99.90
7028;DHT22;3555;53.248;10.336;2023-10-31T03:26:58;12.00;99.90
7028;DHT22;3555;53.248;10.336;2023-10-31T03:29:25;12.00;99.90
7028;DHT22;3555;53.248;10.336;2023-10-31T03:31:53;12.20;99.90
7028;DHT22;3555;53.248;10.336;2023-10-31T03:34:20;12.30;99.90
7028;DHT22;3555;53.248;10.336;2023-10-31T03:36:47;12.10;99.90
7028;DHT22;3555;53.248;10.336;2023-10-31T03:39:14;12.10;99.90
7028;DHT22;3555;53.248;10.336;2023-10-31T03:41:41;12.10;99.90
7028;DHT22;3555;53.248;10.336;2023-10-31T03:44:08;12.20;99.90
7028;DHT22;3555;53.248;10.336;2023-10-31T03:46:35;12.20;99.90
7028;DHT22;3555;53.248;10.336;2023-10-31T03:49:03;12.30;99.90
7028;DHT22;3555;53.248;10.336;2023-10-31T03:51:33;12.20;99.90
7028;DHT22;3555;53.248;10.336;2023-10-31T03:53:59;12.30;99.90
7028;DHT22;3555;53.248;10.336;2023-10-31T03:56:26;12.20;99.90
7028;DHT22;3555;53.248;10.336;2023-10-31T03:58:53;12.20;99.90
7028;DHT22;3555;53.248;10.336;2023-10-31T04:01:20;12.10;99.90
7028;DHT22;3555;53.248;10.336;2023-10-31T04:03:47;12.10;99.90
7028;DHT22;3555;53.248;10.336;2023-10-31T04:06:15;12.10;99.90
7028;DHT22;3555;53.248;10.336;2023-10-31T04:08:42;12.10;99.90
7028;DHT22;3555;53.248;10.336;2023-10-31T04:11:09;12.10;99.90
7028;DHT22;3555;53.248;10.336;2023-10-31T04:13:36;12.10;99.90
7028;DHT22;3555;53.248;10.336;2023-10-31T04:16:03;12.20;99.90
7028;DHT22;3555;53.248;10.336;2023-10-31T04:18:30;12.10;99.90
7028;DHT22;3555;53.248;10.336;2023-10-31T04:20:57;12.10;99.90
7028;DHT22;3555;53.248;10.336;2023-10-31T04:23:25;12.20;99.90
7028;DHT22;3555;53.248;10.336;2023-10-31T04:25:52;12.20;99.90
7028;DHT22;3555;53.248;10.336;2023-10-31T04:28:19;12.20;99.90
7028;DHT22;3555;53.248;10.336;2023-10-31T04:30:46;12.20;99.90
7028;DHT22;3555;53.248;10.336;2023-10-31T04:33:13;12.20;99.90
7028;DHT22;3555;53.248;10.336;2023-10-31T04:35:39;12.30;99.90
7028;DHT22;3555;53.248;10.336;2023-10-31T04:38:06;12.40;99.90
7028;DHT22;3555;53.248;10.336;2023-10-31T04:40:34;12.40;99.90
7028;DHT22;3555;53.248;10.336;2023-10-31T04:43:01;12.40;99.90
7028;DHT22;3555;53.248;10.336;2023-10-31T04:45:28;12.40;99.90
7028;DHT22;3555;53.248;10.336;2023-10-31T04:47:55;12.40;99.90
7028;DHT22;3555;53.248;10.336;2023-10-31T04:50:22;12.40;99.90
7028;DHT22;3555;53.248;10.336;2023-10-31T04:52:49;12.40;99.90
7028;DHT22;3555;53.248;10.336;2023-10-31T04:55:16;12.40;99.90
7028;DHT22;3555;53.248;10.336;2023-10-31T04:57:44;12.50;99.90
7028;DHT22;3555;53.248;10.336;2023-10-31T05:00:12;12.40;99.90
7028;DHT22;3555;53.248;10.336;2023-10-31T05:02:39;12.50;99.90
7028;DHT22;3555;53.248;10.336;2023-10-31T05:05:06;12.50;99.90
7028;DHT22;3555;53.248;10.336;2023-10-31T05:07:33;12.50;99.90
7028;DHT22;3555;53.248;10.336;2023-10-31T05:10:00;12.40;99.90
7028;DHT22;3555;53.248;10.336;2023-10-31T05:12:27;12.40;99.90
7028;DHT22;3555;53.248;10.336;2023-10-31T05:14:55;12.40;99.90
7028;DHT22;3555;53.248;10.336;2023-10-31T05:17:22;12.40;99.90
7028;DHT22;3555;53.248;10.336;2023-10-31T05:19:49;12.40;99.90
7028;DHT22;3555;53.248;10.336;2023-10-31T05:22:16;12.40;99.90
7028;DHT22;3555;53.248;10.336;2023-10-31T05:24:42;12.40;99.90
7028;DHT22;3555;53.248;10.336;2023-10-31T05:27:09;12.40;99.90
7028;DHT22;3555;53.248;10.336;2023-10-31T05:29:38;12.40;99.90
7028;DHT22;3555;53.248;10.336;2023-10-31T05:32:07;12.40;99.90
7028;DHT22;3555;53.248;10.336;2023-10-31T05:34:34;12.40;99.90
7028;DHT22;3555;53.248;10.336;2023-10-31T05:37:01;12.40;99.90
7028;DHT22;3555;53.248;10.336;2023-10-31T05:39:31;12.40;99.90
7028;DHT22;3555;53.248;10.336;2023-10-31T05:41:58;12.40;99.90
7028;DHT22;3555;53.248;10.336;2023-10-31T05:44:25;12.30;99.90
7028;DHT22;3555;53.248;10.336;2023-10-31T05:46:52;12.40;99.90
7028;DHT22;3555;53.248;10.336;2023-10-31T05:49:19;12.40;99.90
7028;DHT22;3555;53.248;10.336;2023-10-31T05:51:50;12.30;99.90
7028;DHT22;3555;53.248;10.336;2023-10-31T05:54:17;12.30;99.90
7028;DHT22;3555;53.248;10.336;2023-10-31T05:56:44;12.30;99.90
7028;DHT22;3555;53.248;10.336;2023-10-31T05:59:11;12.30;99.90
7028;DHT22;3555;53.248;10.336;2023-10-31T06:01:38;12.20;99.90
7028;DHT22;3555;53.248;10.336;2023-10-31T06:04:05;12.20;99.90
7028;DHT22;3555;53.248;10.336;2023-10-31T06:06:36;12.10;99.90
7028;DHT22;3555;53.248;10.336;2023-10-31T06:09:03;12.10;99.90
7028;DHT22;3555;53.248;10.336;2023-10-31T06:11:31;11.90;99.90
7028;DHT22;3555;53.248;10.336;2023-10-31T06:13:58;11.90;99.90
7028;DHT22;3555;53.248;10.336;2023-10-31T06:16:25;11.90;99.90
7028;DHT22;3555;53.248;10.336;2023-10-31T06:18:52;11.80;99.90
7028;DHT22;3555;53.248;10.336;2023-10-31T06:21:19;11.80;99.90
7028;DHT22;3555;53.248;10.336;2023-10-31T06:23:47;11.80;99.90
7028;DHT22;3555;53.248;10.336;2023-10-31T06:26:14;11.70;99.90
7028;DHT22;3555;53.248;10.336;2023-10-31T06:28:41;11.70;99.90
7028;DHT22;3555;53.248;10.336;2023-10-31T06:31:07;11.70;99.90
7028;DHT22;3555;53.248;10.336;2023-10-31T06:33:34;11.60;99.90
7028;DHT22;3555;53.248;10.336;2023-10-31T06:36:02;11.60;99.90
7028;DHT22;3555;53.248;10.336;2023-10-31T06:38:29;11.50;99.90
7028;DHT22;3555;53.248;10.336;2023-10-31T06:40:57;11.50;99.90
7028;DHT22;3555;53.248;10.336;2023-10-31T06:43:24;11.50;99.90
7028;DHT22;3555;53.248;10.336;2023-10-31T06:45:51;11.40;99.90
7028;DHT22;3555;53.248;10.336;2023-10-31T06:48:18;11.30;99.90
7028;DHT22;3555;53.248;10.336;2023-10-31T06:50:45;11.30;99.90
7028;DHT22;3555;53.248;10.336;2023-10-31T06:53:12;11.20;99.90
7028;DHT22;3555;53.248;10.336;2023-10-31T06:55:39;11.20;99.90
7028;DHT22;3555;53.248;10.336;2023-10-31T06:58:07;11.20;99.90
7028;DHT22;3555;53.248;10.336;2023-10-31T07:00:34;11.10;99.90
7028;DHT22;3555;53.248;10.336;2023-10-31T07:03:00;11.20;99.90
7028;DHT22;3555;53.248;10.336;2023-10-31T07:05:31;11.00;99.90
7028;DHT22;3555;53.248;10.336;2023-10-31T07:07:59;11.00;99.90
7028;DHT22;3555;53.248;10.336;2023-10-31T07:10:26;11.00;99.90
7028;DHT22;3555;53.248;10.336;2023-10-31T07:12:53;10.90;99.90
7028;DHT22;3555;53.248;10.336;2023-10-31T07:15:21;10.90;99.90
7028;DHT22;3555;53.248;10.336;2023-10-31T07:17:48;10.80;99.90
7028;DHT22;3555;53.248;10.336;2023-10-31T07:20:14;10.90;99.90
7028;DHT22;3555;53.248;10.336;2023-10-31T07:22:41;10.80;99.90
7028;DHT22;3555;53.248;10.336;2023-10-31T07:25:08;10.80;99.90
7028;DHT22;3555;53.248;10.336;2023-10-31T07:27:35;10.90;99.90
7028;DHT22;3555;53.248;10.336;2023-10-31T07:30:02;10.80;99.90
7028;DHT22;3555;53.248;10.336;2023-10-31T07:32:31;10.80;99.90
7028;DHT22;3555;53.248;10.336;2023-10-31T07:34:58;10.80;99.90
7028;DHT22;3555;53.248;10.336;2023-10-31T07:37:25;10.80;99.90
7028;DHT22;3555;53.248;10.336;2023-10-31T07:39:52;10.70;99.90
7028;DHT22;3555;53.248;10.336;2023-10-31T07:42:19;10.80;99.90
7028;DHT22;3555;53.248;10.336;2023-10-31T07:44:45;10.80;99.90
7028;DHT22;3555;53.248;10.336;2023-10-31T07:47:12;10.80;99.90
7028;DHT22;3555;53.248;10.336;2023-10-31T07:49:41;10.80;99.90
7028;DHT22;3555;53.248;10.336;2023-10-31T07:52:07;10.80;99.90
7028;DHT22;3555;53.248;10.336;2023-10-31T07:54:35;10.80;99.90
7028;DHT22;3555;53.248;10.336;2023-10-31T07:57:01;10.80;99.90
7028;DHT22;3555;53.248;10.336;2023-10-31T07:59:28;10.80;99.90
7028;DHT22;3555;53.248;10.336;2023-10-31T08:01:55;10.80;99.90
7028;DHT22;3555;53.248;10.336;2023-10-31T08:04:22;10.80;99.90
7028;DHT22;3555;53.248;10.336;2023-10-31T08:06:50;10.80;99.90
7028;DHT22;3555;53.248;10.336;2023-10-31T08:09:17;10.80;99.90
7028;DHT22;3555;53.248;10.336;2023-10-31T08:11:44;10.80;99.90
7028;DHT22;3555;53.248;10.336;2023-10-31T08:14:11;10.70;99.90
7028;DHT22;3555;53.248;10.336;2023-10-31T08:16:38;10.70;99.90
7028;DHT22;3555;53.248;10.336;2023-10-31T08:19:04;10.80;99.90
7028;DHT22;3555;53.248;10.336;2023-10-31T08:21:31;10.80;99.90
7028;DHT22;3555;53.248;10.336;2023-10-31T08:24:02;10.70;99.90
7028;DHT22;3555;53.248;10.336;2023-10-31T08:26:29;10.70;99.90
7028;DHT22;3555;53.248;10.336;2023-10-31T08:28:56;10.70;99.90
7028;DHT22;3555;53.248;10.336;2023-10-31T08:31:23;10.80;99.90
7028;DHT22;3555;53.248;10.336;2023-10-31T08:33:50;10.70;99.90
7028;DHT22;3555;53.248;10.336;2023-10-31T08:36:17;10.80;99.90
7028;DHT22;3555;53.248;10.336;2023-10-31T08:38:44;10.70;99.90
7028;DHT22;3555;53.248;10.336;2023-10-31T08:41:12;10.70;99.90
7028;DHT22;3555;53.248;10.336;2023-10-31T08:43:44;10.70;99.90
7028;DHT22;3555;53.248;10.336;2023-10-31T08:46:11;10.60;99.90
7028;DHT22;3555;53.248;10.336;2023-10-31T08:48:38;10.60;99.90
7028;DHT22;3555;53.248;10.336;2023-10-31T08:51:05;10.80;99.90
7028;DHT22;3555;53.248;10.336;2023-10-31T08:53:32;10.60;99.90
7028;DHT22;3555;53.248;10.336;2023-10-31T08:55:59;10.60;99.90
7028;DHT22;3555;53.248;10.336;2023-10-31T08:58:28;10.60;99.90
7028;DHT22;3555;53.248;10.336;2023-10-31T09:00:55;10.60;99.90
7028;DHT22;3555;53.248;10.336;2023-10-31T09:03:21;10.60;99.90
7028;DHT22;3555;53.248;10.336;2023-10-31T09:05:48;10.40;99.90
7028;DHT22;3555;53.248;10.336;2023-10-31T09:08:15;10.50;99.90
7028;DHT22;3555;53.248;10.336;2023-10-31T09:10:43;10.50;99.90
7028;DHT22;3555;53.248;10.336;2023-10-31T09:13:12;10.50;99.90
7028;DHT22;3555;53.248;10.336;2023-10-31T09:15:40;10.40;99.90
7028;DHT22;3555;53.248;10.336;2023-10-31T09:18:07;10.50;99.90
7028;DHT22;3555;53.248;10.336;2023-10-31T09:20:34;10.50;99.90
7028;DHT22;3555;53.248;10.336;2023-10-31T09:23:01;10.40;99.90
7028;DHT22;3555;53.248;10.336;2023-10-31T09:25:28;10.50;99.90
7028;DHT22;3555;53.248;10.336;2023-10-31T09:27:56;10.50;99.90
7028;DHT22;3555;53.248;10.336;2023-10-31T09:30:24;10.50;99.90
7028;DHT22;3555;53.248;10.336;2023-10-31T09:32:53;10.50;99.90
7028;DHT22;3555;53.248;10.336;2023-10-31T09:35:20;10.60;99.90
7028;DHT22;3555;53.248;10.336;2023-10-31T09:37:47;10.50;99.90
7028;DHT22;3555;53.248;10.336;2023-10-31T09:40:15;10.60;99.90
7028;DHT22;3555;53.248;10.336;2023-10-31T09:42:42;10.70;99.90
7028;DHT22;3555;53.248;10.336;2023-10-31T09:45:10;10.70;99.90
7028;DHT22;3555;53.248;10.336;2023-10-31T09:47:37;10.70;99.90
7028;DHT22;3555;53.248;10.336;2023-10-31T09:50:06;10.90;99.90
7028;DHT22;3555;53.248;10.336;2023-10-31T09:52:35;11.00;99.90
7028;DHT22;3555;53.248;10.336;2023-10-31T09:55:03;11.10;99.90
7028;DHT22;3555;53.248;10.336;2023-10-31T09:57:30;11.10;99.90
7028;DHT22;3555;53.248;10.336;2023-10-31T09:59:57;11.10;99.90
7028;DHT22;3555;53.248;10.336;2023-10-31T10:02:24;11.20;99.90
7028;DHT22;3555;53.248;10.336;2023-10-31T10:04:51;11.30;99.90
7028;DHT22;3555;53.248;10.336;2023-10-31T10:07:20;11.20;99.90
7028;DHT22;3555;53.248;10.336;2023-10-31T10:09:47;11.30;99.90
7028;DHT22;3555;53.248;10.336;2023-10-31T10:12:15;11.20;99.90
7028;DHT22;3555;53.248;10.336;2023-10-31T10:14:45;11.20;99.90
7028;DHT22;3555;53.248;10.336;2023-10-31T10:17:15;11.20;99.90
7028;DHT22;3555;53.248;10.336;2023-10-31T10:19:42;11.30;99.90
7028;DHT22;3555;53.248;10.336;2023-10-31T10:22:09;11.30;99.90
7028;DHT22;3555;53.248;10.336;2023-10-31T10:24:41;11.40;99.90
7028;DHT22;3555;53.248;10.336;2023-10-31T10:27:08;11.30;99.90
7028;DHT22;3555;53.248;10.336;2023-10-31T10:29:36;11.30;99.90
7028;DHT22;3555;53.248;10.336;2023-10-31T10:32:05;11.40;99.90
7028;DHT22;3555;53.248;10.336;2023-10-31T10:34:34;11.40;99.90
7028;DHT22;3555;53.248;10.336;2023-10-31T10:37:05;11.50;99.90
7028;DHT22;3555;53.248;10.336;2023-10-31T10:39:33;11.50;99.90
7028;DHT22;3555;53.248;10.336;2023-10-31T10:42:07;11.50;99.90
7028;DHT22;3555;53.248;10.336;2023-10-31T10:44:36;11.60;99.90
7028;DHT22;3555;53.248;10.336;2023-10-31T10:47:05;11.70;99.90
7028;DHT22;3555;53.248;10.336;2023-10-31T10:49:33;11.80;99.90
7028;DHT22;3555;53.248;10.336;2023-10-31T10:52:09;11.80;99.90
7028;DHT22;3555;53.248;10.336;2023-10-31T10:54:45;11.90;99.90
7028;DHT22;3555;53.248;10.336;2023-10-31T10:57:19;11.80;99.90
7028;DHT22;3555;53.248;10.336;2023-10-31T10:59:49;12.00;99.90
7028;DHT22;3555;53.248;10.336;2023-10-31T11:02:19;12.00;99.90
7028;DHT22;3555;53.248;10.336;2023-10-31T11:04:47;12.00;99.90
7028;DHT22;3555;53.248;10.336;2023-10-31T11:07:15;12.10;99.90
7028;DHT22;3555;53.248;10.336;2023-10-31T11:09:44;12.20;99.90
7028;DHT22;3555;53.248;10.336;2023-10-31T11:12:13;12.30;99.90
7028;DHT22;3555;53.248;10.336;2023-10-31T11:14:41;12.20;99.90
7028;DHT22;3555;53.248;10.336;2023-10-31T11:17:14;12.30;99.90
7028;DHT22;3555;53.248;10.336;2023-10-31T11:19:46;12.20;99.90
7028;DHT22;3555;53.248;10.336;2023-10-31T11:22:13;12.10;99.90
7028;DHT22;3555;53.248;10.336;2023-10-31T11:24:40;12.10;99.90
7028;DHT22;3555;53.248;10.336;2023-10-31T11:27:08;12.00;99.90
7028;DHT22;3555;53.248;10.336;2023-10-31T11:29:37;12.00;99.90
7028;DHT22;3555;53.248;10.336;2023-10-31T11:32:08;12.00;99.90
7028;DHT22;3555;53.248;10.336;2023-10-31T11:34:37;12.00;99.90
7028;DHT22;3555;53.248;10.336;2023-10-31T11:37:24;12.00;99.90
7028;DHT22;3555;53.248;10.336;2023-10-31T11:40:16;12.10;99.90
7028;DHT22;3555;53.248;10.336;2023-10-31T11:42:46;12.10;99.90
7028;DHT22;3555;53.248;10.336;2023-10-31T11:45:25;12.10;99.90
7028;DHT22;3555;53.248;10.336;2023-10-31T11:47:55;12.10;99.90
7028;DHT22;3555;53.248;10.336;2023-10-31T11:50:23;12.10;99.90
7028;DHT22;3555;53.248;10.336;2023-10-31T11:53:04;12.00;99.90
7028;DHT22;3555;53.248;10.336;2023-10-31T11:55:34;12.00;99.90
7028;DHT22;3555;53.248;10.336;2023-10-31T11:58:18;11.90;99.90
7028;DHT22;3555;53.248;10.336;2023-10-31T12:00:48;12.00;99.90
7028;DHT22;3555;53.248;10.336;2023-10-31T12:03:15;12.10;99.90
7028;DHT22;3555;53.248;10.336;2023-10-31T12:05:51;12.20;99.90
7028;DHT22;3555;53.248;10.336;2023-10-31T12:08:25;12.30;99.90
7028;DHT22;3555;53.248;10.336;2023-10-31T12:10:52;12.20;99.90
7028;DHT22;3555;53.248;10.336;2023-10-31T12:13:19;12.20;99.90
7028;DHT22;3555;53.248;10.336;2023-10-31T12:15:53;12.20;99.90
7028;DHT22;3555;53.248;10.336;2023-10-31T12:18:20;12.30;99.90
7028;DHT22;3555;53.248;10.336;2023-10-31T12:20:47;12.30;99.90
7028;DHT22;3555;53.248;10.336;2023-10-31T12:23:15;12.30;99.90
7028;DHT22;3555;53.248;10.336;2023-10-31T12:25:46;12.30;99.90
7028;DHT22;3555;53.248;10.336;2023-10-31T12:28:16;12.30;99.90
7028;DHT22;3555;53.248;10.336;2023-10-31T12:30:45;12.40;99.90
7028;DHT22;3555;53.248;10.336;2023-10-31T12:33:14;12.30;99.90
7028;DHT22;3555;53.248;10.336;2023-10-31T12:35:41;12.20;99.90
7028;DHT22;3555;53.248;10.336;2023-10-31T12:38:10;12.30;99.90
7028;DHT22;3555;53.248;10.336;2023-10-31T12:40:39;12.40;99.90
7028;DHT22;3555;53.248;10.336;2023-10-31T12:43:06;12.30;99.90
7028;DHT22;3555;53.248;10.336;2023-10-31T12:45:33;12.30;99.90
7028;DHT22;3555;53.248;10.336;2023-10-31T12:48:01;12.30;99.90
7028;DHT22;3555;53.248;10.336;2023-10-31T12:50:31;12.00;99.90
7028;DHT22;3555;53.248;10.336;2023-10-31T12:52:58;12.00;99.90
7028;DHT22;3555;53.248;10.336;2023-10-31T12:55:26;12.00;99.90
7028;DHT22;3555;53.248;10.336;2023-10-31T12:57:54;12.10;99.90
7028;DHT22;3555;53.248;10.336;2023-10-31T13:00:22;12.20;99.90
7028;DHT22;3555;53.248;10.336;2023-10-31T13:02:58;12.20;99.90
7028;DHT22;3555;53.248;10.336;2023-10-31T13:05:26;12.20;99.90
7028;DHT22;3555;53.248;10.336;2023-10-31T13:07:56;12.20;99.90
7028;DHT22;3555;53.248;10.336;2023-10-31T13:10:26;12.20;99.90
7028;DHT22;3555;53.248;10.336;2023-10-31T13:12:54;12.20;99.90
7028;DHT22;3555;53.248;10.336;2023-10-31T13:15:22;12.20;99.90
7028;DHT22;3555;53.248;10.336;2023-10-31T13:17:49;12.10;99.90
7028;DHT22;3555;53.248;10.336;2023-10-31T13:20:18;12.10;99.90
7028;DHT22;3555;53.248;10.336;2023-10-31T13:22:45;12.20;99.90
7028;DHT22;3555;53.248;10.336;2023-10-31T13:25:14;12.20;99.90
7028;DHT22;3555;53.248;10.336;2023-10-31T13:27:42;12.40;99.90
7028;DHT22;3555;53.248;10.336;2023-10-31T13:30:10;12.10;99.90
7028;DHT22;3555;53.248;10.336;2023-10-31T13:32:39;12.20;99.90
7028;DHT22;3555;53.248;10.336;2023-10-31T13:35:06;12.30;99.90
7028;DHT22;3555;53.248;10.336;2023-10-31T13:37:35;12.40;99.90
7028;DHT22;3555;53.248;10.336;2023-10-31T13:40:02;12.50;99.90
7028;DHT22;3555;53.248;10.336;2023-10-31T13:42:30;12.40;99.90
7028;DHT22;3555;53.248;10.336;2023-10-31T13:44:57;12.50;99.90
7028;DHT22;3555;53.248;10.336;2023-10-31T13:47:24;12.50;99.90
7028;DHT22;3555;53.248;10.336;2023-10-31T13:49:51;12.50;99.90
7028;DHT22;3555;53.248;10.336;2023-10-31T13:52:18;12.50;99.90
7028;DHT22;3555;53.248;10.336;2023-10-31T13:54:45;12.50;99.90
7028;DHT22;3555;53.248;10.336;2023-10-31T13:57:12;12.60;99.90
7028;DHT22;3555;53.248;10.336;2023-10-31T13:59:41;12.70;99.90
7028;DHT22;3555;53.248;10.336;2023-10-31T14:02:08;12.80;99.90
7028;DHT22;3555;53.248;10.336;2023-10-31T14:04:34;12.90;99.90
7028;DHT22;3555;53.248;10.336;2023-10-31T14:07:01;12.90;99.90
7028;DHT22;3555;53.248;10.336;2023-10-31T14:09:28;12.90;99.90
7028;DHT22;3555;53.248;10.336;2023-10-31T14:11:56;13.00;99.90
7028;DHT22;3555;53.248;10.336;2023-10-31T14:14:23;13.00;99.90
7028;DHT22;3555;53.248;10.336;2023-10-31T14:16:51;13.00;99.90
7028;DHT22;3555;53.248;10.336;2023-10-31T14:19:18;13.10;99.90
7028;DHT22;3555;53.248;10.336;2023-10-31T14:21:45;13.20;99.90
7028;DHT22;3555;53.248;10.336;2023-10-31T14:24:12;13.20;99.90
7028;DHT22;3555;53.248;10.336;2023-10-31T14:26:39;13.20;99.90
7028;DHT22;3555;53.248;10.336;2023-10-31T14:29:08;13.20;99.90
7028;DHT22;3555;53.248;10.336;2023-10-31T14:31:40;13.20;99.90
7028;DHT22;3555;53.248;10.336;2023-10-31T14:34:09;13.10;99.90
7028;DHT22;3555;53.248;10.336;2023-10-31T14:36:35;13.00;99.90
7028;DHT22;3555;53.248;10.336;2023-10-31T14:39:03;12.80;99.90
7028;DHT22;3555;53.248;10.336;2023-10-31T14:41:30;12.70;99.90
7028;DHT22;3555;53.248;10.336;2023-10-31T14:43:59;12.60;99.90
7028;DHT22;3555;53.248;10.336;2023-10-31T14:46:27;12.50;99.90
7028;DHT22;3555;53.248;10.336;2023-10-31T14:48:54;12.30;99.90
7028;DHT22;3555;53.248;10.336;2023-10-31T14:51:22;12.10;99.90
7028;DHT22;3555;53.248;10.336;2023-10-31T14:53:49;12.00;99.90
7028;DHT22;3555;53.248;10.336;2023-10-31T14:56:16;12.00;99.90
7028;DHT22;3555;53.248;10.336;2023-10-31T14:58:43;11.90;99.90
7028;DHT22;3555;53.248;10.336;2023-10-31T15:01:10;11.50;99.90
7028;DHT22;3555;53.248;10.336;2023-10-31T15:03:37;11.30;99.90
7028;DHT22;3555;53.248;10.336;2023-10-31T15:06:04;11.10;99.90
7028;DHT22;3555;53.248;10.336;2023-10-31T15:08:34;11.00;99.90
7028;DHT22;3555;53.248;10.336;2023-10-31T15:11:01;10.90;99.90
7028;DHT22;3555;53.248;10.336;2023-10-31T15:13:28;10.80;99.90
7028;DHT22;3555;53.248;10.336;2023-10-31T15:15:55;10.70;99.90
7028;DHT22;3555;53.248;10.336;2023-10-31T15:18:22;10.50;99.90
7028;DHT22;3555;53.248;10.336;2023-10-31T15:20:48;10.40;99.90
7028;DHT22;3555;53.248;10.336;2023-10-31T15:23:16;10.30;99.90
7028;DHT22;3555;53.248;10.336;2023-10-31T15:25:44;10.30;99.90
7028;DHT22;3555;53.248;10.336;2023-10-31T15:28:11;10.30;99.90
7028;DHT22;3555;53.248;10.336;2023-10-31T15:30:38;10.50;99.90
7028;DHT22;3555;53.248;10.336;2023-10-31T15:33:05;10.40;99.90
7028;DHT22;3555;53.248;10.336;2023-10-31T15:35:31;10.20;99.90
7028;DHT22;3555;53.248;10.336;2023-10-31T15:37:58;10.20;99.90
7028;DHT22;3555;53.248;10.336;2023-10-31T15:40:25;10.00;99.90
7028;DHT22;3555;53.248;10.336;2023-10-31T15:42:55;9.90;99.90
7028;DHT22;3555;53.248;10.336;2023-10-31T15:45:22;9.80;99.90
7028;DHT22;3555;53.248;10.336;2023-10-31T15:47:49;9.80;99.90
7028;DHT22;3555;53.248;10.336;2023-10-31T15:50:16;9.60;99.90